sensor_id;sensor_type;location;lat;lon;timestamp;pressure;altitude;pressure_sealevel;temperature;humidity
40315;BME280;26021;45.640;11.302;2023-02-03T00:00:16;99515.63;;;2.73;100.00
40315;BME280;26021;45.640;11.302;2023-02-03T00:02:41;99528.03;;;2.60;100.00
40315;BME280;26021;45.640;11.302;2023-02-03T00:05:07;99497.06;;;2.26;100.00
40315;BME280;26021;45.640;11.302;2023-02-03T00:07:33;99480.56;;;2.22;100.00
40315;BME280;26021;45.640;11.302;2023-02-03T00:10:00;99526.06;;;2.38;100.00
40315;BME280;26021;45.640;11.302;2023-02-03T00:12:27;99533.88;;;2.40;100.00
40315;BME280;26021;45.640;11.302;2023-02-03T00:14:52;99528.28;;;2.44;100.00
40315;BME280;26021;45.640;11.302;2023-02-03T00:17:18;99532.50;;;2.47;100.00
40315;BME280;26021;45.640;11.302;2023-02-03T00:19:43;99521.75;;;2.37;100.00
40315;BME280;26021;45.640;11.302;2023-02-03T00:22:08;99523.28;;;2.52;100.00
40315;BME280;26021;45.640;11.302;2023-02-03T00:24:34;99490.72;;;2.28;100.00
40315;BME280;26021;45.640;11.302;2023-02-03T00:26:59;99505.44;;;2.56;100.00
40315;BME280;26021;45.640;11.302;2023-02-03T00:29:24;99471.22;;;1.92;100.00
40315;BME280;26021;45.640;11.302;2023-02-03T00:31:53;99467.50;;;2.08;100.00
40315;BME280;26021;45.640;11.302;2023-02-03T00:34:19;99473.19;;;2.14;100.00
40315;BME280;26021;45.640;11.302;2023-02-03T00:36:44;99524.91;;;2.17;100.00
40315;BME280;26021;45.640;11.302;2023-02-03T00:39:13;99521.66;;;2.13;100.00
40315;BME280;26021;45.640;11.302;2023-02-03T00:41:39;99465.88;;;1.81;100.00
40315;BME280;26021;45.640;11.302;2023-02-03T00:44:04;99528.81;;;2.37;100.00
40315;BME280;26021;45.640;11.302;2023-02-03T00:46:29;99519.84;;;2.14;100.00
40315;BME280;26021;45.640;11.302;2023-02-03T00:48:55;99536.00;;;2.35;100.00
40315;BME280;26021;45.640;11.302;2023-02-03T00:51:20;99497.50;;;1.94;100.00
40315;BME280;26021;45.640;11.302;2023-02-03T00:53:46;99537.59;;;2.12;100.00
40315;BME280;26021;45.640;11.302;2023-02-03T00:56:12;99543.81;;;1.98;100.00
40315;BME280;26021;45.640;11.302;2023-02-03T00:58:41;99540.25;;;1.99;100.00
40315;BME280;26021;45.640;11.302;2023-02-03T01:01:06;99503.31;;;1.86;100.00
40315;BME280;26021;45.640;11.302;2023-02-03T01:03:32;99527.16;;;2.23;100.00
40315;BME280;26021;45.640;11.302;2023-02-03T01:06:15;99551.22;;;2.06;100.00
40315;BME280;26021;45.640;11.302;2023-02-03T01:08:42;99548.78;;;2.03;100.00
40315;BME280;26021;45.640;11.302;2023-02-03T01:11:09;99546.25;;;2.27;100.00
40315;BME280;26021;45.640;11.302;2023-02-03T01:13:36;99542.88;;;2.37;100.00
40315;BME280;26021;45.640;11.302;2023-02-03T01:16:01;99543.16;;;2.45;100.00
40315;BME280;26021;45.640;11.302;2023-02-03T01:18:27;99536.31;;;2.43;100.00
40315;BME280;26021;45.640;11.302;2023-02-03T01:20:52;99543.63;;;2.27;100.00
40315;BME280;26021;45.640;11.302;2023-02-03T01:23:18;99529.03;;;2.21;100.00
40315;BME280;26021;45.640;11.302;2023-02-03T01:25:43;99540.97;;;2.14;100.00
40315;BME280;26021;45.640;11.302;2023-02-03T01:28:08;99535.06;;;2.23;100.00
40315;BME280;26021;45.640;11.302;2023-02-03T01:30:34;99528.63;;;2.27;100.00
40315;BME280;26021;45.640;11.302;2023-02-03T01:32:59;99537.59;;;2.37;100.00
40315;BME280;26021;45.640;11.302;2023-02-03T01:35:25;99533.47;;;2.33;100.00
40315;BME280;26021;45.640;11.302;2023-02-03T01:37:50;99526.88;;;2.51;100.00
40315;BME280;26021;45.640;11.302;2023-02-03T01:40:16;99519.50;;;2.44;100.00
40315;BME280;26021;45.640;11.302;2023-02-03T01:42:42;99488.06;;;2.41;100.00
40315;BME280;26021;45.640;11.302;2023-02-03T01:45:09;99518.19;;;2.62;100.00
40315;BME280;26021;45.640;11.302;2023-02-03T01:50:25;99519.41;;;2.45;100.00
40315;BME280;26021;45.640;11.302;2023-02-03T01:52:57;99482.06;;;2.26;100.00
40315;BME280;26021;45.640;11.302;2023-02-03T01:55:27;99506.03;;;2.36;100.00
40315;BME280;26021;45.640;11.302;2023-02-03T02:00:58;99496.78;;;1.92;100.00
40315;BME280;26021;45.640;11.302;2023-02-03T02:03:26;99540.13;;;2.13;100.00
40315;BME280;26021;45.640;11.302;2023-02-03T02:06:24;99531.59;;;1.97;100.00
40315;BME280;26021;45.640;11.302;2023-02-03T02:08:52;99523.88;;;2.07;100.00
40315;BME280;26021;45.640;11.302;2023-02-03T02:11:18;99527.34;;;2.20;100.00
40315;BME280;26021;45.640;11.302;2023-02-03T02:13:46;99528.75;;;2.26;100.00
40315;BME280;26021;45.640;11.302;2023-02-03T02:16:52;99532.84;;;2.30;100.00
40315;BME280;26021;45.640;11.302;2023-02-03T02:19:57;99532.13;;;2.28;100.00
40315;BME280;26021;45.640;11.302;2023-02-03T02:28:25;99551.75;;;1.98;100.00
40315;BME280;26021;45.640;11.302;2023-02-03T02:37:03;99575.69;;;2.20;100.00
40315;BME280;26021;45.640;11.302;2023-02-03T02:43:15;99586.88;;;1.99;100.00
40315;BME280;26021;45.640;11.302;2023-02-03T02:45:29;99574.31;;;1.77;100.00
40315;BME280;26021;45.640;11.302;2023-02-03T02:48:04;99545.28;;;1.64;100.00
40315;BME280;26021;45.640;11.302;2023-02-03T02:50:38;99575.97;;;1.65;100.00
40315;BME280;26021;45.640;11.302;2023-02-03T02:53:07;99593.63;;;1.77;100.00
40315;BME280;26021;45.640;11.302;2023-02-03T02:55:37;99598.28;;;1.86;100.00
40315;BME280;26021;45.640;11.302;2023-02-03T02:58:08;99561.94;;;1.52;100.00
40315;BME280;26021;45.640;11.302;2023-02-03T03:00:35;99543.81;;;1.20;100.00
40315;BME280;26021;45.640;11.302;2023-02-03T03:03:19;99579.28;;;1.42;100.00
40315;BME280;26021;45.640;11.302;2023-02-03T03:05:51;99624.84;;;1.83;100.00
40315;BME280;26021;45.640;11.302;2023-02-03T03:08:20;99622.53;;;1.91;100.00
40315;BME280;26021;45.640;11.302;2023-02-03T03:10:47;99565.66;;;1.62;100.00
40315;BME280;26021;45.640;11.302;2023-02-03T03:13:18;99577.56;;;1.68;100.00
40315;BME280;26021;45.640;11.302;2023-02-03T03:15:44;99600.16;;;1.72;100.00
40315;BME280;26021;45.640;11.302;2023-02-03T03:20:47;99630.72;;;1.62;100.00
40315;BME280;26021;45.640;11.302;2023-02-03T03:23:28;99619.84;;;1.53;100.00
40315;BME280;26021;45.640;11.302;2023-02-03T03:26:07;99619.09;;;1.51;100.00
40315;BME280;26021;45.640;11.302;2023-02-03T03:29:02;99640.22;;;1.64;100.00
40315;BME280;26021;45.640;11.302;2023-02-03T03:31:31;99651.78;;;1.88;100.00
40315;BME280;26021;45.640;11.302;2023-02-03T03:33:56;99646.06;;;1.82;100.00
40315;BME280;26021;45.640;11.302;2023-02-03T03:36:43;99638.25;;;1.80;100.00
40315;BME280;26021;45.640;11.302;2023-02-03T03:44:34;99627.38;;;1.45;100.00
40315;BME280;26021;45.640;11.302;2023-02-03T03:47:15;99647.72;;;1.43;100.00
40315;BME280;26021;45.640;11.302;2023-02-03T03:49:44;99667.19;;;1.55;100.00
40315;BME280;26021;45.640;11.302;2023-02-03T03:52:14;99679.25;;;1.45;100.00
40315;BME280;26021;45.640;11.302;2023-02-03T03:54:43;99701.50;;;1.68;100.00
40315;BME280;26021;45.640;11.302;2023-02-03T03:57:20;99684.06;;;1.38;100.00
40315;BME280;26021;45.640;11.302;2023-02-03T03:59:49;99703.25;;;1.40;100.00
40315;BME280;26021;45.640;11.302;2023-02-03T04:02:16;99695.78;;;1.61;100.00
40315;BME280;26021;45.640;11.302;2023-02-03T04:04:43;99709.88;;;1.74;100.00
40315;BME280;26021;45.640;11.302;2023-02-03T04:07:12;99697.81;;;1.70;100.00
40315;BME280;26021;45.640;11.302;2023-02-03T04:09:38;99638.97;;;1.43;100.00
40315;BME280;26021;45.640;11.302;2023-02-03T04:12:05;99698.03;;;1.67;100.00
40315;BME280;26021;45.640;11.302;2023-02-03T04:14:35;99703.78;;;1.86;100.00
40315;BME280;26021;45.640;11.302;2023-02-03T04:17:05;99694.69;;;1.78;100.00
40315;BME280;26021;45.640;11.302;2023-02-03T04:19:30;99655.63;;;1.70;100.00
40315;BME280;26021;45.640;11.302;2023-02-03T04:21:56;99688.41;;;1.93;100.00
40315;BME280;26021;45.640;11.302;2023-02-03T04:24:21;99682.88;;;1.83;100.00
40315;BME280;26021;45.640;11.302;2023-02-03T04:26:46;99661.38;;;1.89;100.00
40315;BME280;26021;45.640;11.302;2023-02-03T04:29:12;99676.47;;;1.87;100.00
40315;BME280;26021;45.640;11.302;2023-02-03T04:31:37;99679.19;;;1.86;100.00
40315;BME280;26021;45.640;11.302;2023-02-03T04:34:03;99671.66;;;1.67;100.00
40315;BME280;26021;45.640;11.302;2023-02-03T04:36:29;99644.88;;;1.46;100.00
40315;BME280;26021;45.640;11.302;2023-02-03T04:38:54;99682.16;;;1.54;100.00
40315;BME280;26021;45.640;11.302;2023-02-03T04:41:20;99666.69;;;1.63;100.00
40315;BME280;26021;45.640;11.302;2023-02-03T04:43:45;99634.44;;;1.45;100.00
40315;BME280;26021;45.640;11.302;2023-02-03T04:46:10;99646.94;;;1.55;100.00
40315;BME280;26021;45.640;11.302;2023-02-03T04:48:36;99659.69;;;1.49;100.00
40315;BME280;26021;45.640;11.302;2023-02-03T04:51:03;99684.50;;;1.45;100.00
40315;BME280;26021;45.640;11.302;2023-02-03T04:53:29;99634.50;;;1.57;100.00
40315;BME280;26021;45.640;11.302;2023-02-03T04:55:55;99676.38;;;1.62;100.00
40315;BME280;26021;45.640;11.302;2023-02-03T04:58:20;99677.94;;;1.52;100.00
40315;BME280;26021;45.640;11.302;2023-02-03T05:00:46;99671.00;;;1.64;100.00
40315;BME280;26021;45.640;11.302;2023-02-03T05:03:11;99637.16;;;1.43;100.00
40315;BME280;26021;45.640;11.302;2023-02-03T05:05:37;99631.09;;;1.28;100.00
40315;BME280;26021;45.640;11.302;2023-02-03T05:08:02;99672.66;;;1.52;100.00
40315;BME280;26021;45.640;11.302;2023-02-03T05:10:28;99676.25;;;1.51;100.00
40315;BME280;26021;45.640;11.302;2023-02-03T05:12:54;99667.19;;;1.55;100.00
40315;BME280;26021;45.640;11.302;2023-02-03T05:15:19;99675.28;;;1.52;100.00
40315;BME280;26021;45.640;11.302;2023-02-03T05:17:44;99656.50;;;1.30;100.00
40315;BME280;26021;45.640;11.302;2023-02-03T05:20:10;99669.88;;;1.26;100.00
40315;BME280;26021;45.640;11.302;2023-02-03T05:22:36;99664.13;;;1.34;100.00
40315;BME280;26021;45.640;11.302;2023-02-03T05:25:02;99644.63;;;1.10;100.00
40315;BME280;26021;45.640;11.302;2023-02-03T05:27:28;99662.72;;;1.28;100.00
40315;BME280;26021;45.640;11.302;2023-02-03T05:29:54;99666.16;;;1.16;100.00
40315;BME280;26021;45.640;11.302;2023-02-03T05:32:19;99675.38;;;1.09;100.00
40315;BME280;26021;45.640;11.302;2023-02-03T05:34:44;99667.84;;;1.17;100.00
40315;BME280;26021;45.640;11.302;2023-02-03T05:37:10;99668.31;;;1.10;100.00
40315;BME280;26021;45.640;11.302;2023-02-03T05:39:35;99621.81;;;0.68;100.00
40315;BME280;26021;45.640;11.302;2023-02-03T05:42:01;99675.13;;;1.00;100.00
40315;BME280;26021;45.640;11.302;2023-02-03T05:44:27;99652.41;;;1.11;100.00
40315;BME280;26021;45.640;11.302;2023-02-03T05:46:55;99626.50;;;0.91;100.00
40315;BME280;26021;45.640;11.302;2023-02-03T05:49:21;99653.59;;;0.93;100.00
40315;BME280;26021;45.640;11.302;2023-02-03T05:51:51;99619.56;;;0.76;100.00
40315;BME280;26021;45.640;11.302;2023-02-03T05:54:16;99642.94;;;1.09;100.00
40315;BME280;26021;45.640;11.302;2023-02-03T05:56:42;99642.00;;;0.95;100.00
40315;BME280;26021;45.640;11.302;2023-02-03T05:59:08;99649.84;;;1.24;100.00
40315;BME280;26021;45.640;11.302;2023-02-03T06:01:34;99648.03;;;0.98;100.00
40315;BME280;26021;45.640;11.302;2023-02-03T06:04:00;99655.41;;;0.78;100.00
40315;BME280;26021;45.640;11.302;2023-02-03T06:06:26;99653.97;;;0.87;100.00
40315;BME280;26021;45.640;11.302;2023-02-03T06:08:58;99661.13;;;0.85;100.00
40315;BME280;26021;45.640;11.302;2023-02-03T06:11:23;99618.63;;;0.48;100.00
40315;BME280;26021;45.640;11.302;2023-02-03T06:13:49;99657.09;;;0.79;100.00
40315;BME280;26021;45.640;11.302;2023-02-03T06:16:15;99660.84;;;0.75;100.00
40315;BME280;26021;45.640;11.302;2023-02-03T06:18:40;99629.34;;;0.45;100.00
40315;BME280;26021;45.640;11.302;2023-02-03T06:21:06;99658.09;;;0.91;100.00
40315;BME280;26021;45.640;11.302;2023-02-03T06:23:31;99659.41;;;0.70;100.00
40315;BME280;26021;45.640;11.302;2023-02-03T06:25:57;99662.06;;;0.84;100.00
40315;BME280;26021;45.640;11.302;2023-02-03T06:28:25;99644.69;;;0.81;100.00
40315;BME280;26021;45.640;11.302;2023-02-03T06:30:50;99620.88;;;0.83;100.00
40315;BME280;26021;45.640;11.302;2023-02-03T06:33:17;99661.41;;;0.80;100.00
40315;BME280;26021;45.640;11.302;2023-02-03T06:35:43;99670.53;;;0.75;100.00
40315;BME280;26021;45.640;11.302;2023-02-03T06:38:08;99684.38;;;0.78;100.00
40315;BME280;26021;45.640;11.302;2023-02-03T06:40:34;99691.69;;;0.87;100.00
40315;BME280;26021;45.640;11.302;2023-02-03T06:42:59;99705.06;;;0.84;100.00
40315;BME280;26021;45.640;11.302;2023-02-03T06:45:24;99556.75;;;-0.16;100.00
40315;BME280;26021;45.640;11.302;2023-02-03T06:47:50;99726.88;;;0.86;100.00
40315;BME280;26021;45.640;11.302;2023-02-03T06:50:16;99698.47;;;0.77;100.00
40315;BME280;26021;45.640;11.302;2023-02-03T06:52:41;99738.34;;;0.85;100.00
40315;BME280;26021;45.640;11.302;2023-02-03T06:55:07;99746.16;;;0.87;100.00
40315;BME280;26021;45.640;11.302;2023-02-03T06:57:32;99742.97;;;0.82;100.00
40315;BME280;26021;45.640;11.302;2023-02-03T06:59:58;99733.03;;;0.71;100.00
40315;BME280;26021;45.640;11.302;2023-02-03T07:02:23;99731.34;;;0.70;100.00
40315;BME280;26021;45.640;11.302;2023-02-03T07:04:49;99726.94;;;0.56;100.00
40315;BME280;26021;45.640;11.302;2023-02-03T07:07:15;99746.41;;;0.68;100.00
40315;BME280;26021;45.640;11.302;2023-02-03T07:09:41;99747.28;;;0.83;100.00
40315;BME280;26021;45.640;11.302;2023-02-03T07:12:07;99724.78;;;1.06;100.00
40315;BME280;26021;45.640;11.302;2023-02-03T07:14:33;99731.94;;;1.18;100.00
40315;BME280;26021;45.640;11.302;2023-02-03T07:17:03;99729.22;;;1.05;100.00
40315;BME280;26021;45.640;11.302;2023-02-03T07:19:29;99730.03;;;1.20;100.00
40315;BME280;26021;45.640;11.302;2023-02-03T07:21:54;99726.66;;;1.18;100.00
40315;BME280;26021;45.640;11.302;2023-02-03T07:24:20;99732.84;;;1.31;100.00
40315;BME280;26021;45.640;11.302;2023-02-03T07:26:45;99735.31;;;1.20;100.00
40315;BME280;26021;45.640;11.302;2023-02-03T07:29:11;99730.00;;;1.34;100.00
40315;BME280;26021;45.640;11.302;2023-02-03T07:31:36;99749.78;;;1.27;100.00
40315;BME280;26021;45.640;11.302;2023-02-03T07:34:02;99575.50;;;0.22;100.00
40315;BME280;26021;45.640;11.302;2023-02-03T07:36:28;99759.28;;;1.58;100.00
40315;BME280;26021;45.640;11.302;2023-02-03T07:38:53;99729.06;;;1.35;100.00
40315;BME280;26021;45.640;11.302;2023-02-03T07:41:19;99724.00;;;1.32;100.00
40315;BME280;26021;45.640;11.302;2023-02-03T07:43:45;99736.97;;;1.49;100.00
40315;BME280;26021;45.640;11.302;2023-02-03T07:46:10;99751.31;;;1.72;100.00
40315;BME280;26021;45.640;11.302;2023-02-03T07:48:36;99754.59;;;2.03;100.00
40315;BME280;26021;45.640;11.302;2023-02-03T07:51:01;99751.41;;;2.25;100.00
40315;BME280;26021;45.640;11.302;2023-02-03T07:53:27;99715.97;;;2.14;100.00
40315;BME280;26021;45.640;11.302;2023-02-03T07:55:52;99716.63;;;2.18;100.00
40315;BME280;26021;45.640;11.302;2023-02-03T07:58:17;99713.31;;;2.41;100.00
40315;BME280;26021;45.640;11.302;2023-02-03T08:00:43;99725.97;;;2.87;100.00
40315;BME280;26021;45.640;11.302;2023-02-03T08:03:08;99710.97;;;2.87;100.00
40315;BME280;26021;45.640;11.302;2023-02-03T08:05:34;99695.03;;;2.76;100.00
40315;BME280;26021;45.640;11.302;2023-02-03T08:07:59;99716.69;;;3.07;100.00
40315;BME280;26021;45.640;11.302;2023-02-03T08:10:25;99715.97;;;3.41;100.00
40315;BME280;26021;45.640;11.302;2023-02-03T08:12:53;99692.13;;;3.54;100.00
40315;BME280;26021;45.640;11.302;2023-02-03T08:15:19;99716.72;;;3.67;100.00
40315;BME280;26021;45.640;11.302;2023-02-03T08:17:44;99723.28;;;3.74;100.00
40315;BME280;26021;45.640;11.302;2023-02-03T08:20:11;99689.50;;;3.78;100.00
40315;BME280;26021;45.640;11.302;2023-02-03T08:22:36;99713.19;;;4.03;100.00
40315;BME280;26021;45.640;11.302;2023-02-03T08:25:02;99676.28;;;3.78;100.00
40315;BME280;26021;45.640;11.302;2023-02-03T08:27:28;99704.34;;;3.92;100.00
40315;BME280;26021;45.640;11.302;2023-02-03T08:29:53;99713.72;;;3.85;100.00
40315;BME280;26021;45.640;11.302;2023-02-03T08:32:20;99701.88;;;4.01;100.00
40315;BME280;26021;45.640;11.302;2023-02-03T08:34:46;99707.00;;;3.92;100.00
40315;BME280;26021;45.640;11.302;2023-02-03T08:37:13;99615.25;;;3.44;100.00
40315;BME280;26021;45.640;11.302;2023-02-03T08:39:39;99633.13;;;3.89;100.00
40315;BME280;26021;45.640;11.302;2023-02-03T08:42:05;99702.34;;;4.41;100.00
40315;BME280;26021;45.640;11.302;2023-02-03T08:44:31;99670.53;;;4.30;100.00
40315;BME280;26021;45.640;11.302;2023-02-03T08:46:57;99630.03;;;4.06;100.00
40315;BME280;26021;45.640;11.302;2023-02-03T08:49:24;99732.91;;;4.81;100.00
40315;BME280;26021;45.640;11.302;2023-02-03T08:51:50;99696.03;;;4.89;100.00
40315;BME280;26021;45.640;11.302;2023-02-03T08:54:16;99722.66;;;5.09;100.00
40315;BME280;26021;45.640;11.302;2023-02-03T08:56:42;99728.47;;;5.37;100.00
40315;BME280;26021;45.640;11.302;2023-02-03T08:59:07;99670.97;;;4.93;100.00
40315;BME280;26021;45.640;11.302;2023-02-03T09:01:33;99726.19;;;5.32;100.00
40315;BME280;26021;45.640;11.302;2023-02-03T09:03:58;99723.75;;;5.18;100.00
40315;BME280;26021;45.640;11.302;2023-02-03T09:06:26;99698.19;;;5.17;100.00
40315;BME280;26021;45.640;11.302;2023-02-03T09:08:54;99723.50;;;5.43;100.00
40315;BME280;26021;45.640;11.302;2023-02-03T09:11:19;99730.16;;;5.38;100.00
40315;BME280;26021;45.640;11.302;2023-02-03T09:13:45;99718.31;;;5.53;100.00
40315;BME280;26021;45.640;11.302;2023-02-03T09:16:11;99724.41;;;5.98;100.00
40315;BME280;26021;45.640;11.302;2023-02-03T09:18:37;99728.94;;;6.08;100.00
40315;BME280;26021;45.640;11.302;2023-02-03T09:21:05;99718.69;;;6.03;100.00
40315;BME280;26021;45.640;11.302;2023-02-03T09:23:31;99738.00;;;6.05;100.00
40315;BME280;26021;45.640;11.302;2023-02-03T09:26:07;99729.09;;;6.27;100.00
40315;BME280;26021;45.640;11.302;2023-02-03T09:28:34;99699.88;;;6.27;100.00
40315;BME280;26021;45.640;11.302;2023-02-03T09:31:01;99706.03;;;6.27;100.00
40315;BME280;26021;45.640;11.302;2023-02-03T09:33:27;99731.44;;;6.41;100.00
40315;BME280;26021;45.640;11.302;2023-02-03T09:35:53;99722.09;;;6.67;100.00
40315;BME280;26021;45.640;11.302;2023-02-03T09:38:18;99717.13;;;6.53;100.00
40315;BME280;26021;45.640;11.302;2023-02-03T09:40:48;99721.84;;;6.50;100.00
40315;BME280;26021;45.640;11.302;2023-02-03T09:43:34;99676.03;;;6.36;100.00
40315;BME280;26021;45.640;11.302;2023-02-03T09:46:10;99701.44;;;6.71;100.00
40315;BME280;26021;45.640;11.302;2023-02-03T09:48:42;99696.09;;;6.92;100.00
40315;BME280;26021;45.640;11.302;2023-02-03T09:56:59;99714.63;;;7.03;100.00
40315;BME280;26021;45.640;11.302;2023-02-03T09:59:31;99712.44;;;7.18;100.00
40315;BME280;26021;45.640;11.302;2023-02-03T10:08:05;99715.81;;;7.20;100.00
40315;BME280;26021;45.640;11.302;2023-02-03T10:16:08;99722.44;;;7.35;100.00
40315;BME280;26021;45.640;11.302;2023-02-03T10:18:48;99715.72;;;7.41;100.00
40315;BME280;26021;45.640;11.302;2023-02-03T10:21:40;99720.22;;;7.40;100.00
40315;BME280;26021;45.640;11.302;2023-02-03T10:24:38;99721.06;;;7.41;100.00
40315;BME280;26021;45.640;11.302;2023-02-03T10:27:07;99594.63;;;6.66;100.00
40315;BME280;26021;45.640;11.302;2023-02-03T10:29:37;99662.56;;;7.10;100.00
40315;BME280;26021;45.640;11.302;2023-02-03T10:32:10;99686.25;;;7.23;100.00
40315;BME280;26021;45.640;11.302;2023-02-03T10:34:36;99683.19;;;7.27;100.00
40315;BME280;26021;45.640;11.302;2023-02-03T10:37:27;99679.53;;;7.19;100.00
40315;BME280;26021;45.640;11.302;2023-02-03T10:39:54;99676.22;;;7.36;100.00
40315;BME280;26021;45.640;11.302;2023-02-03T10:42:21;99676.44;;;7.63;100.00
40315;BME280;26021;45.640;11.302;2023-02-03T10:44:57;99648.97;;;7.73;100.00
40315;BME280;26021;45.640;11.302;2023-02-03T10:47:28;99665.53;;;7.95;100.00
40315;BME280;26021;45.640;11.302;2023-02-03T10:50:04;99667.47;;;8.03;100.00
40315;BME280;26021;45.640;11.302;2023-02-03T10:52:32;99658.09;;;7.89;100.00
40315;BME280;26021;45.640;11.302;2023-02-03T10:55:44;99660.47;;;8.12;100.00
40315;BME280;26021;45.640;11.302;2023-02-03T10:57:45;99644.91;;;8.17;100.00
40315;BME280;26021;45.640;11.302;2023-02-03T11:00:31;99617.69;;;8.13;100.00
40315;BME280;26021;45.640;11.302;2023-02-03T11:03:34;99624.56;;;8.25;100.00
40315;BME280;26021;45.640;11.302;2023-02-03T11:06:15;99629.22;;;8.23;100.00
40315;BME280;26021;45.640;11.302;2023-02-03T11:08:46;99592.34;;;8.19;100.00
40315;BME280;26021;45.640;11.302;2023-02-03T11:11:23;99604.25;;;8.34;100.00
40315;BME280;26021;45.640;11.302;2023-02-03T11:14:11;99607.38;;;8.67;100.00
40315;BME280;26021;45.640;11.302;2023-02-03T11:16:41;99593.59;;;8.71;100.00
40315;BME280;26021;45.640;11.302;2023-02-03T11:19:25;99596.91;;;8.83;99.70
40315;BME280;26021;45.640;11.302;2023-02-03T11:21:52;99529.84;;;8.50;99.79
40315;BME280;26021;45.640;11.302;2023-02-03T11:24:30;99594.09;;;8.94;99.36
40315;BME280;26021;45.640;11.302;2023-02-03T11:27:00;99592.81;;;8.88;97.37
40315;BME280;26021;45.640;11.302;2023-02-03T11:29:40;99592.41;;;8.83;96.57
40315;BME280;26021;45.640;11.302;2023-02-03T11:34:46;99565.44;;;8.86;94.91
40315;BME280;26021;45.640;11.302;2023-02-03T11:37:39;99572.44;;;8.97;95.07
40315;BME280;26021;45.640;11.302;2023-02-03T11:42:32;99568.19;;;9.04;91.59
40315;BME280;26021;45.640;11.302;2023-02-03T11:56:13;99520.47;;;9.37;88.56
40315;BME280;26021;45.640;11.302;2023-02-03T12:15:53;99485.19;;;9.86;80.11
40315;BME280;26021;45.640;11.302;2023-02-03T12:24:00;99459.94;;;9.81;79.50
40315;BME280;26021;45.640;11.302;2023-02-03T12:29:19;99442.09;;;9.64;84.64
40315;BME280;26021;45.640;11.302;2023-02-03T12:34:32;99431.88;;;10.11;84.69
40315;BME280;26021;45.640;11.302;2023-02-03T12:37:20;99431.47;;;10.24;85.33
40315;BME280;26021;45.640;11.302;2023-02-03T12:39:52;99426.72;;;10.43;83.81
40315;BME280;26021;45.640;11.302;2023-02-03T12:42:31;99427.16;;;10.39;82.64
40315;BME280;26021;45.640;11.302;2023-02-03T12:45:10;99379.69;;;9.99;83.53
40315;BME280;26021;45.640;11.302;2023-02-03T12:47:47;99421.91;;;10.21;85.22
40315;BME280;26021;45.640;11.302;2023-02-03T12:50:39;99408.94;;;10.00;86.43
40315;BME280;26021;45.640;11.302;2023-02-03T12:53:13;99407.22;;;10.25;86.01
40315;BME280;26021;45.640;11.302;2023-02-03T12:55:47;99397.09;;;10.03;88.09
40315;BME280;26021;45.640;11.302;2023-02-03T12:58:27;99383.41;;;9.72;91.79
40315;BME280;26021;45.640;11.302;2023-02-03T13:03:40;99342.38;;;9.55;91.32
40315;BME280;26021;45.640;11.302;2023-02-03T13:11:55;99400.28;;;10.06;90.74
40315;BME280;26021;45.640;11.302;2023-02-03T13:17:02;99352.28;;;9.63;93.62
40315;BME280;26021;45.640;11.302;2023-02-03T13:19:38;99383.44;;;9.80;93.20
40315;BME280;26021;45.640;11.302;2023-02-03T13:22:10;99388.16;;;9.86;93.12
40315;BME280;26021;45.640;11.302;2023-02-03T13:24:37;99374.84;;;9.94;92.55
40315;BME280;26021;45.640;11.302;2023-02-03T13:27:25;99356.94;;;9.61;93.33
40315;BME280;26021;45.640;11.302;2023-02-03T13:43:42;99400.97;;;9.31;100.00
40315;BME280;26021;45.640;11.302;2023-02-03T13:46:39;99393.22;;;9.45;100.00
40315;BME280;26021;45.640;11.302;2023-02-03T13:49:05;99368.03;;;9.48;99.85
40315;BME280;26021;45.640;11.302;2023-02-03T13:51:35;99387.63;;;9.56;100.00
40315;BME280;26021;45.640;11.302;2023-02-03T13:54:07;99376.38;;;9.45;100.00
40315;BME280;26021;45.640;11.302;2023-02-03T13:56:37;99381.97;;;9.34;100.00
40315;BME280;26021;45.640;11.302;2023-02-03T14:01:39;99357.19;;;9.23;100.00
40315;BME280;26021;45.640;11.302;2023-02-03T14:09:21;99375.66;;;9.17;100.00
40315;BME280;26021;45.640;11.302;2023-02-03T14:11:51;99286.31;;;8.59;100.00
40315;BME280;26021;45.640;11.302;2023-02-03T14:16:46;99380.25;;;9.07;100.00
40315;BME280;26021;45.640;11.302;2023-02-03T14:22:15;99370.06;;;9.02;100.00
40315;BME280;26021;45.640;11.302;2023-02-03T14:24:43;99346.25;;;8.73;100.00
40315;BME280;26021;45.640;11.302;2023-02-03T14:27:22;99364.84;;;8.83;100.00
40315;BME280;26021;45.640;11.302;2023-02-03T14:35:21;99364.66;;;8.94;100.00
40315;BME280;26021;45.640;11.302;2023-02-03T14:38:10;99365.00;;;8.81;100.00
40315;BME280;26021;45.640;11.302;2023-02-03T14:40:55;99359.66;;;8.81;100.00
40315;BME280;26021;45.640;11.302;2023-02-03T14:43:35;99373.31;;;8.60;100.00
40315;BME280;26021;45.640;11.302;2023-02-03T14:48:57;99367.44;;;8.39;100.00
40315;BME280;26021;45.640;11.302;2023-02-03T14:59:53;99349.63;;;8.03;100.00
40315;BME280;26021;45.640;11.302;2023-02-03T15:02:23;99334.19;;;7.79;100.00
40315;BME280;26021;45.640;11.302;2023-02-03T15:04:52;99339.41;;;7.71;100.00
40315;BME280;26021;45.640;11.302;2023-02-03T15:07:47;99337.63;;;7.61;100.00
40315;BME280;26021;45.640;11.302;2023-02-03T15:10:26;99346.56;;;7.70;100.00
40315;BME280;26021;45.640;11.302;2023-02-03T15:12:56;99352.38;;;7.56;100.00
40315;BME280;26021;45.640;11.302;2023-02-03T15:15:27;99338.78;;;7.59;100.00
40315;BME280;26021;45.640;11.302;2023-02-03T15:17:55;99340.03;;;7.55;100.00
40315;BME280;26021;45.640;11.302;2023-02-03T15:22:55;99343.19;;;7.21;100.00
40315;BME280;26021;45.640;11.302;2023-02-03T15:25:22;99335.91;;;7.23;100.00
40315;BME280;26021;45.640;11.302;2023-02-03T15:27:49;99347.81;;;7.19;100.00
40315;BME280;26021;45.640;11.302;2023-02-03T15:30:25;99275.53;;;6.67;100.00